sensor_id;sensor_type;location;lat;lon;timestamp;P1;durP1;ratioP1;P2;durP2;ratioP2
42432;SDS011;28071;48.232;20.668;2023-10-31T00:04:27;8.30;;;3.60;;
42432;SDS011;28071;48.232;20.668;2023-10-31T00:09:27;4.40;;;3.08;;
42432;SDS011;28071;48.232;20.668;2023-10-31T00:14:28;7.37;;;3.40;;
42432;SDS011;28071;48.232;20.668;2023-10-31T00:19:28;7.05;;;3.83;;
42432;SDS011;28071;48.232;20.668;2023-10-31T00:24:28;7.13;;;3.80;;
42432;SDS011;28071;48.232;20.668;2023-10-31T00:29:29;7.43;;;3.50;;
42432;SDS011;28071;48.232;20.668;2023-10-31T00:34:29;7.80;;;3.42;;
42432;SDS011;28071;48.232;20.668;2023-10-31T00:39:30;9.77;;;3.60;;
42432;SDS011;28071;48.232;20.668;2023-10-31T00:44:30;8.10;;;3.05;;
42432;SDS011;28071;48.232;20.668;2023-10-31T00:49:31;10.50;;;3.60;;
42432;SDS011;28071;48.232;20.668;2023-10-31T00:54:31;8.05;;;3.85;;
42432;SDS011;28071;48.232;20.668;2023-10-31T00:59:31;9.43;;;3.50;;
42432;SDS011;28071;48.232;20.668;2023-10-31T01:04:32;7.55;;;3.80;;
42432;SDS011;28071;48.232;20.668;2023-10-31T01:09:32;8.85;;;3.72;;
42432;SDS011;28071;48.232;20.668;2023-10-31T01:14:33;5.22;;;3.15;;
42432;SDS011;28071;48.232;20.668;2023-10-31T01:19:33;6.65;;;3.25;;
42432;SDS011;28071;48.232;20.668;2023-10-31T01:24:34;6.95;;;3.75;;
42432;SDS011;28071;48.232;20.668;2023-10-31T01:29:35;5.60;;;3.05;;
42432;SDS011;28071;48.232;20.668;2023-10-31T01:34:35;6.47;;;3.50;;
42432;SDS011;28071;48.232;20.668;2023-10-31T01:39:36;9.40;;;3.83;;
42432;SDS011;28071;48.232;20.668;2023-10-31T01:44:37;6.78;;;3.10;;
42432;SDS011;28071;48.232;20.668;2023-10-31T01:49:37;7.25;;;3.22;;
42432;SDS011;28071;48.232;20.668;2023-10-31T01:54:38;6.80;;;3.20;;
42432;SDS011;28071;48.232;20.668;2023-10-31T01:59:39;5.70;;;2.83;;
42432;SDS011;28071;48.232;20.668;2023-10-31T02:04:39;9.20;;;2.90;;
42432;SDS011;28071;48.232;20.668;2023-10-31T02:09:40;6.32;;;3.45;;
42432;SDS011;28071;48.232;20.668;2023-10-31T02:14:40;7.80;;;3.30;;
42432;SDS011;28071;48.232;20.668;2023-10-31T02:19:41;7.78;;;3.42;;
42432;SDS011;28071;48.232;20.668;2023-10-31T02:24:41;8.40;;;2.92;;
42432;SDS011;28071;48.232;20.668;2023-10-31T02:29:41;6.30;;;3.08;;
42432;SDS011;28071;48.232;20.668;2023-10-31T02:34:44;5.30;;;2.85;;
42432;SDS011;28071;48.232;20.668;2023-10-31T02:39:45;10.23;;;3.22;;
42432;SDS011;28071;48.232;20.668;2023-10-31T02:44:45;7.50;;;3.10;;
42432;SDS011;28071;48.232;20.668;2023-10-31T02:49:46;6.45;;;3.28;;
42432;SDS011;28071;48.232;20.668;2023-10-31T02:54:47;7.40;;;3.38;;
42432;SDS011;28071;48.232;20.668;2023-10-31T02:59:47;7.43;;;3.13;;
42432;SDS011;28071;48.232;20.668;2023-10-31T03:04:48;7.43;;;3.13;;
42432;SDS011;28071;48.232;20.668;2023-10-31T03:09:48;5.00;;;3.08;;
42432;SDS011;28071;48.232;20.668;2023-10-31T03:14:49;6.30;;;3.07;;
42432;SDS011;28071;48.232;20.668;2023-10-31T03:19:49;4.75;;;3.28;;
42432;SDS011;28071;48.232;20.668;2023-10-31T03:24:49;7.68;;;3.08;;
42432;SDS011;28071;48.232;20.668;2023-10-31T03:29:50;7.38;;;3.17;;
42432;SDS011;28071;48.232;20.668;2023-10-31T03:34:50;5.80;;;3.35;;
42432;SDS011;28071;48.232;20.668;2023-10-31T03:39:51;5.72;;;3.10;;
42432;SDS011;28071;48.232;20.668;2023-10-31T03:44:51;7.50;;;3.17;;
42432;SDS011;28071;48.232;20.668;2023-10-31T03:49:51;11.27;;;3.47;;
42432;SDS011;28071;48.232;20.668;2023-10-31T03:54:52;6.50;;;3.13;;
42432;SDS011;28071;48.232;20.668;2023-10-31T03:59:52;3.85;;;2.85;;
42432;SDS011;28071;48.232;20.668;2023-10-31T04:04:53;8.23;;;2.88;;
42432;SDS011;28071;48.232;20.668;2023-10-31T04:09:53;6.18;;;3.30;;
42432;SDS011;28071;48.232;20.668;2023-10-31T04:14:54;7.50;;;3.47;;
42432;SDS011;28071;48.232;20.668;2023-10-31T04:19:54;18.65;;;4.22;;
42432;SDS011;28071;48.232;20.668;2023-10-31T04:24:55;5.55;;;3.28;;
42432;SDS011;28071;48.232;20.668;2023-10-31T04:29:56;7.18;;;3.33;;
42432;SDS011;28071;48.232;20.668;2023-10-31T04:34:56;5.60;;;3.22;;
42432;SDS011;28071;48.232;20.668;2023-10-31T04:39:57;7.07;;;3.78;;
42432;SDS011;28071;48.232;20.668;2023-10-31T04:44:57;8.35;;;2.80;;
42432;SDS011;28071;48.232;20.668;2023-10-31T04:49:58;6.18;;;2.88;;
42432;SDS011;28071;48.232;20.668;2023-10-31T04:54:58;6.88;;;3.60;;
42432;SDS011;28071;48.232;20.668;2023-10-31T04:59:58;4.82;;;2.85;;
42432;SDS011;28071;48.232;20.668;2023-10-31T05:04:59;6.43;;;3.30;;
42432;SDS011;28071;48.232;20.668;2023-10-31T05:09:59;6.47;;;3.45;;
42432;SDS011;28071;48.232;20.668;2023-10-31T05:15:00;8.98;;;3.78;;
42432;SDS011;28071;48.232;20.668;2023-10-31T05:20:00;5.57;;;3.65;;
42432;SDS011;28071;48.232;20.668;2023-10-31T05:25:01;6.68;;;3.60;;
42432;SDS011;28071;48.232;20.668;2023-10-31T05:30:01;10.38;;;3.90;;
42432;SDS011;28071;48.232;20.668;2023-10-31T05:35:02;4.95;;;3.55;;
42432;SDS011;28071;48.232;20.668;2023-10-31T05:40:02;5.60;;;3.22;;
42432;SDS011;28071;48.232;20.668;2023-10-31T05:45:03;5.82;;;3.83;;
42432;SDS011;28071;48.232;20.668;2023-10-31T05:50:04;7.68;;;4.65;;
42432;SDS011;28071;48.232;20.668;2023-10-31T05:55:06;9.13;;;4.68;;
42432;SDS011;28071;48.232;20.668;2023-10-31T06:00:07;7.45;;;5.25;;
42432;SDS011;28071;48.232;20.668;2023-10-31T06:05:08;12.55;;;5.97;;
42432;SDS011;28071;48.232;20.668;2023-10-31T06:10:08;9.65;;;4.97;;
42432;SDS011;28071;48.232;20.668;2023-10-31T06:15:10;11.68;;;5.13;;
42432;SDS011;28071;48.232;20.668;2023-10-31T06:20:10;8.35;;;4.25;;
42432;SDS011;28071;48.232;20.668;2023-10-31T06:25:11;12.88;;;4.43;;
42432;SDS011;28071;48.232;20.668;2023-10-31T06:30:12;17.40;;;6.70;;
42432;SDS011;28071;48.232;20.668;2023-10-31T06:35:13;13.35;;;8.15;;
42432;SDS011;28071;48.232;20.668;2023-10-31T06:40:13;11.38;;;5.93;;
42432;SDS011;28071;48.232;20.668;2023-10-31T06:45:14;8.68;;;4.35;;
42432;SDS011;28071;48.232;20.668;2023-10-31T06:50:14;5.80;;;2.40;;
42432;SDS011;28071;48.232;20.668;2023-10-31T06:55:15;5.15;;;2.08;;
42432;SDS011;28071;48.232;20.668;2023-10-31T07:00:16;3.17;;;1.80;;
42432;SDS011;28071;48.232;20.668;2023-10-31T07:05:17;3.50;;;1.85;;
42432;SDS011;28071;48.232;20.668;2023-10-31T07:10:20;3.47;;;1.70;;
42432;SDS011;28071;48.232;20.668;2023-10-31T07:15:20;5.93;;;2.03;;
42432;SDS011;28071;48.232;20.668;2023-10-31T07:20:21;7.97;;;4.00;;
42432;SDS011;28071;48.232;20.668;2023-10-31T07:25:21;8.15;;;3.60;;
42432;SDS011;28071;48.232;20.668;2023-10-31T07:30:22;7.05;;;3.60;;
42432;SDS011;28071;48.232;20.668;2023-10-31T07:35:22;7.43;;;4.13;;
42432;SDS011;28071;48.232;20.668;2023-10-31T07:40:23;10.30;;;3.90;;
42432;SDS011;28071;48.232;20.668;2023-10-31T07:45:23;11.48;;;4.72;;
42432;SDS011;28071;48.232;20.668;2023-10-31T07:50:23;8.30;;;4.72;;
42432;SDS011;28071;48.232;20.668;2023-10-31T07:55:24;9.45;;;4.50;;
42432;SDS011;28071;48.232;20.668;2023-10-31T08:00:24;10.80;;;5.57;;
42432;SDS011;28071;48.232;20.668;2023-10-31T08:05:25;4.90;;;4.10;;
42432;SDS011;28071;48.232;20.668;2023-10-31T08:10:25;13.40;;;5.82;;
42432;SDS011;28071;48.232;20.668;2023-10-31T08:15:26;10.95;;;5.57;;
42432;SDS011;28071;48.232;20.668;2023-10-31T08:20:26;9.73;;;4.78;;
42432;SDS011;28071;48.232;20.668;2023-10-31T08:25:26;11.37;;;4.90;;
42432;SDS011;28071;48.232;20.668;2023-10-31T08:30:27;7.80;;;3.97;;
42432;SDS011;28071;48.232;20.668;2023-10-31T08:35:27;8.07;;;5.10;;
42432;SDS011;28071;48.232;20.668;2023-10-31T08:40:28;11.18;;;7.03;;
42432;SDS011;28071;48.232;20.668;2023-10-31T08:45:28;14.00;;;7.30;;
42432;SDS011;28071;48.232;20.668;2023-10-31T08:50:29;10.43;;;6.50;;
42432;SDS011;28071;48.232;20.668;2023-10-31T08:55:29;14.23;;;6.40;;
42432;SDS011;28071;48.232;20.668;2023-10-31T09:00:29;10.52;;;6.05;;
42432;SDS011;28071;48.232;20.668;2023-10-31T09:05:30;10.80;;;5.75;;
42432;SDS011;28071;48.232;20.668;2023-10-31T09:10:31;15.15;;;6.60;;
42432;SDS011;28071;48.232;20.668;2023-10-31T09:15:33;12.60;;;8.45;;
42432;SDS011;28071;48.232;20.668;2023-10-31T09:20:33;7.82;;;4.60;;
42432;SDS011;28071;48.232;20.668;2023-10-31T09:25:33;8.07;;;4.15;;
42432;SDS011;28071;48.232;20.668;2023-10-31T09:30:34;7.13;;;3.90;;
42432;SDS011;28071;48.232;20.668;2023-10-31T09:35:35;6.95;;;3.20;;
42432;SDS011;28071;48.232;20.668;2023-10-31T09:40:36;8.15;;;3.47;;
42432;SDS011;28071;48.232;20.668;2023-10-31T09:45:38;5.78;;;3.33;;
42432;SDS011;28071;48.232;20.668;2023-10-31T09:50:39;6.18;;;3.70;;
42432;SDS011;28071;48.232;20.668;2023-10-31T09:55:41;6.65;;;3.78;;
42432;SDS011;28071;48.232;20.668;2023-10-31T10:00:42;8.70;;;3.42;;
42432;SDS011;28071;48.232;20.668;2023-10-31T10:05:43;9.52;;;3.55;;
42432;SDS011;28071;48.232;20.668;2023-10-31T10:10:45;9.65;;;3.80;;
42432;SDS011;28071;48.232;20.668;2023-10-31T10:15:46;9.15;;;3.70;;
42432;SDS011;28071;48.232;20.668;2023-10-31T10:20:54;9.60;;;4.03;;
42432;SDS011;28071;48.232;20.668;2023-10-31T10:25:59;9.27;;;3.60;;
42432;SDS011;28071;48.232;20.668;2023-10-31T10:31:00;13.88;;;4.30;;
42432;SDS011;28071;48.232;20.668;2023-10-31T10:36:01;5.85;;;3.38;;
42432;SDS011;28071;48.232;20.668;2023-10-31T10:41:02;7.68;;;4.10;;
42432;SDS011;28071;48.232;20.668;2023-10-31T10:46:06;6.25;;;3.53;;
42432;SDS011;28071;48.232;20.668;2023-10-31T10:56:28;5.55;;;3.47;;
42432;SDS011;28071;48.232;20.668;2023-10-31T11:01:34;7.30;;;3.28;;
42432;SDS011;28071;48.232;20.668;2023-10-31T11:06:36;7.68;;;3.85;;
42432;SDS011;28071;48.232;20.668;2023-10-31T11:11:38;6.60;;;3.33;;
42432;SDS011;28071;48.232;20.668;2023-10-31T11:16:54;8.38;;;3.58;;
42432;SDS011;28071;48.232;20.668;2023-10-31T11:22:00;9.75;;;3.65;;
42432;SDS011;28071;48.232;20.668;2023-10-31T11:27:03;8.48;;;3.40;;
42432;SDS011;28071;48.232;20.668;2023-10-31T11:32:09;6.90;;;3.65;;
42432;SDS011;28071;48.232;20.668;2023-10-31T11:42:27;6.70;;;3.15;;
42432;SDS011;28071;48.232;20.668;2023-10-31T11:47:44;8.07;;;4.53;;
42432;SDS011;28071;48.232;20.668;2023-10-31T12:03:15;8.48;;;4.07;;
42432;SDS011;28071;48.232;20.668;2023-10-31T12:08:26;5.45;;;3.50;;
42432;SDS011;28071;48.232;20.668;2023-10-31T12:13:40;5.82;;;3.17;;
42432;SDS011;28071;48.232;20.668;2023-10-31T12:18:42;8.65;;;4.72;;
42432;SDS011;28071;48.232;20.668;2023-10-31T12:23:43;9.88;;;5.32;;
42432;SDS011;28071;48.232;20.668;2023-10-31T12:28:43;7.35;;;4.15;;
42432;SDS011;28071;48.232;20.668;2023-10-31T12:33:43;9.50;;;3.55;;
42432;SDS011;28071;48.232;20.668;2023-10-31T12:38:45;5.65;;;3.00;;
42432;SDS011;28071;48.232;20.668;2023-10-31T12:43:47;6.97;;;3.80;;
42432;SDS011;28071;48.232;20.668;2023-10-31T12:48:48;9.32;;;4.45;;
42432;SDS011;28071;48.232;20.668;2023-10-31T12:53:49;8.10;;;4.25;;
42432;SDS011;28071;48.232;20.668;2023-10-31T12:58:55;7.05;;;3.72;;
42432;SDS011;28071;48.232;20.668;2023-10-31T13:03:58;6.22;;;3.50;;
42432;SDS011;28071;48.232;20.668;2023-10-31T13:08:59;9.63;;;4.03;;
42432;SDS011;28071;48.232;20.668;2023-10-31T13:14:00;8.10;;;4.43;;
42432;SDS011;28071;48.232;20.668;2023-10-31T13:19:00;8.88;;;4.80;;
42432;SDS011;28071;48.232;20.668;2023-10-31T13:24:01;9.02;;;4.57;;
42432;SDS011;28071;48.232;20.668;2023-10-31T13:29:01;8.50;;;3.92;;
42432;SDS011;28071;48.232;20.668;2023-10-31T13:34:01;6.80;;;4.05;;
42432;SDS011;28071;48.232;20.668;2023-10-31T13:39:02;7.50;;;3.60;;
42432;SDS011;28071;48.232;20.668;2023-10-31T13:44:03;6.20;;;3.60;;
42432;SDS011;28071;48.232;20.668;2023-10-31T13:49:04;8.45;;;3.67;;
42432;SDS011;28071;48.232;20.668;2023-10-31T13:54:04;9.23;;;3.63;;
42432;SDS011;28071;48.232;20.668;2023-10-31T13:59:05;10.48;;;4.30;;
42432;SDS011;28071;48.232;20.668;2023-10-31T14:04:06;11.60;;;4.93;;
42432;SDS011;28071;48.232;20.668;2023-10-31T14:09:07;12.52;;;5.57;;
42432;SDS011;28071;48.232;20.668;2023-10-31T14:14:10;7.65;;;4.20;;
42432;SDS011;28071;48.232;20.668;2023-10-31T14:19:14;15.25;;;5.65;;
42432;SDS011;28071;48.232;20.668;2023-10-31T14:24:16;10.50;;;5.15;;
42432;SDS011;28071;48.232;20.668;2023-10-31T14:29:16;9.93;;;5.50;;
42432;SDS011;28071;48.232;20.668;2023-10-31T14:34:17;8.90;;;4.97;;
42432;SDS011;28071;48.232;20.668;2023-10-31T14:39:17;11.27;;;5.22;;
42432;SDS011;28071;48.232;20.668;2023-10-31T14:44:18;13.50;;;8.00;;
42432;SDS011;28071;48.232;20.668;2023-10-31T14:49:18;12.82;;;9.25;;
42432;SDS011;28071;48.232;20.668;2023-10-31T14:54:19;9.07;;;6.63;;
42432;SDS011;28071;48.232;20.668;2023-10-31T14:59:19;10.18;;;5.50;;
42432;SDS011;28071;48.232;20.668;2023-10-31T15:04:20;8.80;;;5.93;;
42432;SDS011;28071;48.232;20.668;2023-10-31T15:09:20;8.63;;;5.63;;
42432;SDS011;28071;48.232;20.668;2023-10-31T15:14:22;13.18;;;5.68;;
42432;SDS011;28071;48.232;20.668;2023-10-31T15:19:22;11.88;;;5.90;;
42432;SDS011;28071;48.232;20.668;2023-10-31T15:24:23;13.63;;;6.47;;
42432;SDS011;28071;48.232;20.668;2023-10-31T15:29:23;12.27;;;6.88;;
42432;SDS011;28071;48.232;20.668;2023-10-31T15:34:24;55.88;;;30.92;;
42432;SDS011;28071;48.232;20.668;2023-10-31T15:39:24;16.83;;;11.77;;
42432;SDS011;28071;48.232;20.668;2023-10-31T15:44:24;13.73;;;7.75;;
42432;SDS011;28071;48.232;20.668;2023-10-31T15:49:25;9.70;;;6.03;;
42432;SDS011;28071;48.232;20.668;2023-10-31T15:54:25;12.48;;;6.38;;
42432;SDS011;28071;48.232;20.668;2023-10-31T15:59:27;14.50;;;9.45;;
42432;SDS011;28071;48.232;20.668;2023-10-31T16:04:28;11.27;;;7.75;;
42432;SDS011;28071;48.232;20.668;2023-10-31T16:09:28;18.90;;;10.98;;
42432;SDS011;28071;48.232;20.668;2023-10-31T16:14:29;26.00;;;18.45;;
42432;SDS011;28071;48.232;20.668;2023-10-31T16:19:29;27.10;;;18.15;;
42432;SDS011;28071;48.232;20.668;2023-10-31T16:24:30;30.15;;;19.23;;
42432;SDS011;28071;48.232;20.668;2023-10-31T16:29:30;28.75;;;18.02;;
42432;SDS011;28071;48.232;20.668;2023-10-31T16:34:31;25.20;;;16.70;;
42432;SDS011;28071;48.232;20.668;2023-10-31T16:39:32;22.67;;;15.13;;
42432;SDS011;28071;48.232;20.668;2023-10-31T16:44:32;23.63;;;15.20;;
42432;SDS011;28071;48.232;20.668;2023-10-31T16:49:33;22.05;;;16.33;;
42432;SDS011;28071;48.232;20.668;2023-10-31T16:54:34;25.83;;;15.75;;
42432;SDS011;28071;48.232;20.668;2023-10-31T16:59:34;33.00;;;19.17;;
42432;SDS011;28071;48.232;20.668;2023-10-31T17:04:35;39.47;;;24.20;;
42432;SDS011;28071;48.232;20.668;2023-10-31T17:09:36;31.63;;;21.98;;
42432;SDS011;28071;48.232;20.668;2023-10-31T17:14:37;32.40;;;18.98;;
42432;SDS011;28071;48.232;20.668;2023-10-31T17:19:37;23.30;;;16.42;;
42432;SDS011;28071;48.232;20.668;2023-10-31T17:24:38;19.63;;;14.40;;
42432;SDS011;28071;48.232;20.668;2023-10-31T17:29:38;19.45;;;13.75;;
42432;SDS011;28071;48.232;20.668;2023-10-31T17:34:39;24.58;;;15.23;;
42432;SDS011;28071;48.232;20.668;2023-10-31T17:39:39;26.70;;;19.40;;
42432;SDS011;28071;48.232;20.668;2023-10-31T17:44:40;23.85;;;15.73;;
42432;SDS011;28071;48.232;20.668;2023-10-31T17:49:40;19.77;;;14.98;;
42432;SDS011;28071;48.232;20.668;2023-10-31T17:54:41;19.25;;;15.27;;
42432;SDS011;28071;48.232;20.668;2023-10-31T17:59:42;27.35;;;20.25;;
42432;SDS011;28071;48.232;20.668;2023-10-31T18:04:42;16.88;;;13.00;;
42432;SDS011;28071;48.232;20.668;2023-10-31T18:09:45;18.17;;;13.95;;
42432;SDS011;28071;48.232;20.668;2023-10-31T18:14:46;75.05;;;32.75;;
42432;SDS011;28071;48.232;20.668;2023-10-31T18:19:47;47.88;;;27.63;;
42432;SDS011;28071;48.232;20.668;2023-10-31T18:24:47;21.13;;;14.15;;
42432;SDS011;28071;48.232;20.668;2023-10-31T18:29:50;26.95;;;17.58;;
42432;SDS011;28071;48.232;20.668;2023-10-31T18:34:52;30.20;;;19.65;;
42432;SDS011;28071;48.232;20.668;2023-10-31T18:39:53;34.50;;;19.55;;
42432;SDS011;28071;48.232;20.668;2023-10-31T18:44:53;16.33;;;11.80;;
42432;SDS011;28071;48.232;20.668;2023-10-31T18:49:54;10.75;;;7.75;;
42432;SDS011;28071;48.232;20.668;2023-10-31T18:54:54;18.58;;;12.23;;
42432;SDS011;28071;48.232;20.668;2023-10-31T18:59:59;15.57;;;8.85;;
42432;SDS011;28071;48.232;20.668;2023-10-31T19:05:06;12.33;;;8.57;;
42432;SDS011;28071;48.232;20.668;2023-10-31T19:10:08;11.40;;;7.65;;
42432;SDS011;28071;48.232;20.668;2023-10-31T19:15:12;11.63;;;8.07;;
42432;SDS011;28071;48.232;20.668;2023-10-31T19:20:13;30.83;;;22.92;;
42432;SDS011;28071;48.232;20.668;2023-10-31T19:25:14;43.00;;;27.98;;
42432;SDS011;28071;48.232;20.668;2023-10-31T19:30:15;34.17;;;24.92;;
42432;SDS011;28071;48.232;20.668;2023-10-31T19:35:15;22.35;;;12.25;;
42432;SDS011;28071;48.232;20.668;2023-10-31T19:40:16;35.97;;;13.88;;
42432;SDS011;28071;48.232;20.668;2023-10-31T19:45:20;15.30;;;9.38;;
42432;SDS011;28071;48.232;20.668;2023-10-31T19:50:21;13.30;;;9.93;;
42432;SDS011;28071;48.232;20.668;2023-10-31T19:55:22;9.35;;;7.30;;
42432;SDS011;28071;48.232;20.668;2023-10-31T20:00:23;7.60;;;6.90;;
42432;SDS011;28071;48.232;20.668;2023-10-31T20:05:27;9.68;;;7.93;;
42432;SDS011;28071;48.232;20.668;2023-10-31T20:10:28;11.75;;;8.50;;
42432;SDS011;28071;48.232;20.668;2023-10-31T20:15:29;10.70;;;6.88;;
42432;SDS011;28071;48.232;20.668;2023-10-31T20:20:29;8.50;;;6.70;;
42432;SDS011;28071;48.232;20.668;2023-10-31T20:25:30;6.10;;;5.45;;
42432;SDS011;28071;48.232;20.668;2023-10-31T20:30:33;7.07;;;5.55;;
42432;SDS011;28071;48.232;20.668;2023-10-31T20:35:34;8.75;;;6.15;;
42432;SDS011;28071;48.232;20.668;2023-10-31T20:40:35;9.30;;;5.20;;
42432;SDS011;28071;48.232;20.668;2023-10-31T20:45:36;10.27;;;5.32;;
42432;SDS011;28071;48.232;20.668;2023-10-31T20:50:38;5.47;;;4.97;;
42432;SDS011;28071;48.232;20.668;2023-10-31T20:55:39;5.65;;;4.75;;
42432;SDS011;28071;48.232;20.668;2023-10-31T21:00:39;4.30;;;3.40;;
42432;SDS011;28071;48.232;20.668;2023-10-31T21:05:40;4.70;;;3.28;;
42432;SDS011;28071;48.232;20.668;2023-10-31T21:10:40;5.85;;;3.17;;
42432;SDS011;28071;48.232;20.668;2023-10-31T21:15:41;5.03;;;2.75;;
42432;SDS011;28071;48.232;20.668;2023-10-31T21:20:41;6.85;;;2.63;;
42432;SDS011;28071;48.232;20.668;2023-10-31T21:25:42;3.10;;;2.22;;
42432;SDS011;28071;48.232;20.668;2023-10-31T21:30:43;4.53;;;2.80;;
42432;SDS011;28071;48.232;20.668;2023-10-31T21:35:43;2.83;;;1.88;;
42432;SDS011;28071;48.232;20.668;2023-10-31T21:40:44;3.45;;;2.03;;
42432;SDS011;28071;48.232;20.668;2023-10-31T21:45:44;1.95;;;1.42;;
42432;SDS011;28071;48.232;20.668;2023-10-31T21:50:45;3.85;;;1.67;;
42432;SDS011;28071;48.232;20.668;2023-10-31T21:55:45;1.33;;;1.05;;
42432;SDS011;28071;48.232;20.668;2023-10-31T22:00:46;3.45;;;1.38;;
42432;SDS011;28071;48.232;20.668;2023-10-31T22:05:46;5.47;;;1.27;;
42432;SDS011;28071;48.232;20.668;2023-10-31T22:10:47;2.42;;;1.20;;
42432;SDS011;28071;48.232;20.668;2023-10-31T22:15:47;3.08;;;1.30;;
42432;SDS011;28071;48.232;20.668;2023-10-31T22:20:48;1.27;;;1.17;;
42432;SDS011;28071;48.232;20.668;2023-10-31T22:25:49;3.10;;;0.90;;
42432;SDS011;28071;48.232;20.668;2023-10-31T22:30:50;1.10;;;1.00;;
42432;SDS011;28071;48.232;20.668;2023-10-31T22:35:50;1.48;;;0.85;;
42432;SDS011;28071;48.232;20.668;2023-10-31T22:40:50;3.33;;;1.35;;
42432;SDS011;28071;48.232;20.668;2023-10-31T22:45:52;0.88;;;0.80;;
42432;SDS011;28071;48.232;20.668;2023-10-31T22:56:12;0.75;;;0.65;;
42432;SDS011;28071;48.232;20.668;2023-10-31T23:01:12;2.33;;;0.70;;
42432;SDS011;28071;48.232;20.668;2023-10-31T23:06:12;0.57;;;0.57;;
42432;SDS011;28071;48.232;20.668;2023-10-31T23:11:13;1.67;;;0.50;;
42432;SDS011;28071;48.232;20.668;2023-10-31T23:16:14;1.08;;;0.85;;
42432;SDS011;28071;48.232;20.668;2023-10-31T23:21:14;0.82;;;0.50;;
42432;SDS011;28071;48.232;20.668;2023-10-31T23:26:15;1.50;;;0.60;;
42432;SDS011;28071;48.232;20.668;2023-10-31T23:31:15;0.93;;;0.60;;
42432;SDS011;28071;48.232;20.668;2023-10-31T23:36:16;2.58;;;0.57;;
42432;SDS011;28071;48.232;20.668;2023-10-31T23:41:16;2.08;;;0.68;;
42432;SDS011;28071;48.232;20.668;2023-10-31T23:46:17;2.15;;;0.60;;
42432;SDS011;28071;48.232;20.668;2023-10-31T23:51:18;1.13;;;0.60;;
42432;SDS011;28071;48.232;20.668;2023-10-31T23:56:19;1.80;;;0.35;;
